Wahatoya, Colorado
Current Conditions -  °F | °C
As of 11:27 AM on Friday 31 Oct 2014 (Local Time) from KVTP Reporting Station
Clear Clear  
Wind Chill: 40°   Ceiling: Unl
Heat Index: 45°   Visibility: 10mi
Dew Point: 21°   Wind: 9mph
Humidity: 39%   Direction: 200°SSW
Pressure: 30.47"   Gusts: NA
Location:  37.5011°N, 105.046°W
Report Text: KVTP 311727Z AUTO 20008KT 160V250 10SM CLR 07/M06 A3047 RMK AO2
Loading
Personal Weather Stations






























Interactive Weather Map
Tropical Storm Tracking
New forecast layout! Learn more

10-Day Weather Forecast

Advertisements
Track Severe Weather on mobile